Time;durP1;ratioP1;P1;durP2;ratioP2;P2;SDS_P1;SDS_P2;PMS_P1;PMS_P2;Temp;Humidity;BMP_temperature;BMP_pressure;BME280_temperature;BME280_humidity;BME280_pressure;Samples;Min_cycle;Max_cycle;Signal;HPM_P1;HPM_P2
2022/07/09 07:58:58;;;;;;;23.15;20.38;;;;;;;19.67;78.07;102604.88;5317205;27;20352;-70
2022/07/09 08:01:29;;;;;;;23.85;21.33;;;;;;;19.77;78.12;102604.69;5301339;28;20036;-72
2022/07/09 08:04:01;;;;;;;23.02;20.63;;;;;;;19.76;77.22;102583.31;5301080;28;20027;-70
2022/07/09 08:06:34;;;;;;;32.03;28.58;;;;;;;19.94;76.62;102591.97;5300083;28;20097;-73
2022/07/09 08:09:05;;;;;;;23.42;20.65;;;;;;;20.01;76.73;102591.56;5300759;28;20111;-73
2022/07/09 08:11:36;;;;;;;24.95;22.45;;;;;;;20.05;76.59;102592.63;5301162;28;20523;-73
2022/07/09 08:14:08;;;;;;;22.00;19.60;;;;;;;20.05;74.81;102589.81;5300205;28;20028;-73
2022/07/09 08:16:40;;;;;;;24.92;22.08;;;;;;;20.02;76.08;102581.97;5300689;28;20472;-72
2022/07/09 08:19:13;;;;;;;25.20;21.30;;;;;;;20.06;75.60;102580.19;5300815;28;20108;-73
2022/07/09 08:21:45;;;;;;;35.58;32.03;;;;;;;20.13;74.48;102575.00;5300453;28;20025;-71
2022/07/09 08:24:16;;;;;;;21.48;19.30;;;;;;;20.32;73.98;102566.41;5300803;28;20028;-70
2022/07/09 08:26:47;;;;;;;23.50;21.20;;;;;;;20.38;74.20;102563.19;5300429;28;20476;-69
2022/07/09 08:29:19;;;;;;;24.50;22.20;;;;;;;20.31;73.65;102556.31;5300027;28;20074;-70
2022/07/09 08:31:51;;;;;;;22.52;20.42;;;;;;;20.20;74.53;102558.50;5300565;28;20028;-70
2022/07/09 08:34:22;;;;;;;23.88;21.60;;;;;;;20.13;74.07;102558.91;5299769;28;20051;-69
2022/07/09 08:36:53;;;;;;;21.02;18.83;;;;;;;20.33;73.43;102565.28;5300401;28;20067;-69
2022/07/09 08:39:25;;;;;;;24.65;22.05;;;;;;;20.31;73.36;102551.50;5300724;28;20074;-70
2022/07/09 08:42:07;;;;;;;21.27;19.15;;;;;;;20.45;73.50;102550.63;5299605;28;20048;-69
2022/07/09 08:44:42;;;;;;;20.25;18.15;;;;;;;20.58;71.77;102544.16;5300848;28;20028;-69
2022/07/09 08:47:14;;;;;;;20.15;17.80;;;;;;;20.68;71.32;102540.28;5300044;28;20024;-69
2022/07/09 08:49:48;;;;;;;21.40;19.30;;;;;;;20.65;72.37;102546.56;5299095;28;20099;-72
2022/07/09 08:52:20;;;;;;;21.20;18.98;;;;;;;20.81;72.09;102540.25;5299527;28;20108;-71
2022/07/09 08:54:54;;;;;;;21.30;18.98;;;;;;;20.94;72.24;102534.84;5299800;28;20024;-69
2022/07/09 08:57:25;;;;;;;20.33;18.33;;;;;;;20.96;70.85;102535.38;5298822;28;20037;-69
2022/07/09 08:59:56;;;;;;;22.30;16.65;;;;;;;21.03;70.11;102538.59;5300190;28;20020;-69
2022/07/09 09:02:33;;;;;;;17.73;15.98;;;;;;;20.95;69.23;102547.81;5299398;28;20020;-69
2022/07/09 09:05:15;;;;;;;18.90;16.33;;;;;;;21.08;69.43;102543.28;5300337;28;20046;-70
2022/07/09 09:07:46;;;;;;;17.63;15.77;;;;;;;20.99;69.88;102526.31;5299510;28;20021;-70
2022/07/09 09:10:28;;;;;;;17.15;15.35;;;;;;;21.11;69.67;102534.16;5285377;28;20082;-70
2022/07/09 09:13:01;;;;;;;18.73;16.83;;;;;;;21.09;69.44;102531.69;5285676;28;20025;-71
2022/07/09 09:15:32;;;;;;;16.55;14.95;;;;;;;21.16;68.97;102543.31;5285776;28;20028;-72
2022/07/09 09:18:03;;;;;;;16.13;14.60;;;;;;;21.17;69.10;102539.38;5284911;28;20078;-71
2022/07/09 09:20:35;;;;;;;17.30;15.65;;;;;;;21.03;68.59;102539.41;5285694;28;20037;-71
2022/07/09 09:23:10;;;;;;;17.10;15.50;;;;;;;21.06;69.66;102527.53;5285408;28;20091;-70
2022/07/09 09:25:41;;;;;;;17.67;15.98;;;;;;;21.09;69.42;102526.03;5285155;28;20127;-70
2022/07/09 09:28:14;;;;;;;20.02;18.00;;;;;;;21.06;69.08;102529.47;5284623;28;20147;-67
2022/07/09 09:30:46;;;;;;;19.55;16.85;;;;;;;21.11;69.95;102535.00;5284483;28;20024;-69
2022/07/09 09:33:18;;;;;;;24.23;21.90;;;;;;;21.01;69.59;102529.59;5285598;28;20032;-71
2022/07/09 09:35:50;;;;;;;18.85;16.85;;;;;;;20.96;70.33;102530.59;5285699;28;20032;-71
2022/07/09 09:38:23;;;;;;;18.90;16.98;;;;;;;21.11;71.01;102534.16;5284731;28;20032;-71
2022/07/09 09:40:54;;;;;;;23.55;21.50;;;;;;;21.07;70.36;102536.81;5285345;28;20027;-71
2022/07/09 09:43:27;;;;;;;20.83;18.52;;;;;;;21.21;70.68;102516.97;5267863;28;20025;-70
2022/07/09 09:45:59;;;;;;;19.45;17.60;;;;;;;21.28;70.09;102526.66;5263564;28;20052;-71
2022/07/09 09:48:30;;;;;;;19.75;17.80;;;;;;;21.34;69.63;102527.34;5264390;28;20052;-71
2022/07/09 09:51:02;;;;;;;19.95;17.95;;;;;;;21.35;69.22;102525.38;5263974;28;20027;-70
2022/07/09 09:53:34;;;;;;;17.67;16.15;;;;;;;21.30;68.96;102528.34;5263765;28;20031;-69
2022/07/09 09:56:06;;;;;;;21.42;19.27;;;;;;;21.28;69.74;102523.00;5284355;28;20016;-70
2022/07/09 09:58:39;;;;;;;21.52;19.38;;;;;;;21.15;69.86;102524.75;5283508;28;20102;-70
2022/07/09 10:01:12;;;;;;;19.77;17.80;;;;;;;21.17;70.37;102532.91;5285050;28;20502;-69
2022/07/09 10:03:45;;;;;;;19.38;17.67;;;;;;;21.11;70.71;102523.72;5284858;28;20024;-69
2022/07/09 10:06:17;;;;;;;20.33;18.27;;;;;;;21.00;71.62;102523.13;5284142;28;20082;-69
2022/07/09 10:08:48;;;;;;;19.60;17.63;;;;;;;21.01;72.39;102533.28;5284856;28;20032;-70
2022/07/09 10:11:21;;;;;;;19.20;17.33;;;;;;;20.98;72.09;102535.91;5284813;28;20023;-70
2022/07/09 10:13:55;;;;;;;19.17;17.02;;;;;;;21.03;71.00;102532.94;5283648;28;20060;-71
2022/07/09 10:16:38;;;;;;;14.95;13.60;;;;;;;21.02;70.99;102532.13;5284419;28;20410;-70
2022/07/09 10:19:09;;;;;;;121.32;108.22;;;;;;;21.06;70.49;102529.47;5283997;28;20063;-71
2022/07/09 10:21:42;;;;;;;14.88;13.48;;;;;;;21.08;70.18;102520.72;5283331;28;20052;-70
2022/07/09 10:24:33;;;;;;;12.70;11.43;;;;;;;21.37;69.71;102515.44;5284297;28;20135;-71
2022/07/09 10:27:08;;;;;;;11.82;10.65;;;;;;;21.39;68.47;102515.94;5283622;28;20039;-71
2022/07/09 10:30:08;;;;;;;12.13;10.80;;;;;;;21.35;70.32;102522.56;5283939;28;20029;-71
2022/07/09 10:32:42;;;;;;;12.38;9.55;;;;;;;21.25;70.13;102529.28;5279018;28;20128;-70
2022/07/09 10:35:13;;;;;;;8.57;7.50;;;;;;;21.24;68.96;102528.47;5283664;28;20032;-70
2022/07/09 10:37:45;;;;;;;10.77;9.63;;;;;;;21.32;69.38;102531.66;5283669;28;20024;-70
2022/07/09 10:40:20;;;;;;;9.35;7.55;;;;;;;21.27;69.15;102527.81;5283880;28;20082;-70
2022/07/09 10:43:00;;;;;;;11.88;7.13;;;;;;;21.51;68.88;102515.38;5282977;28;20044;-70
2022/07/09 10:45:34;;;;;;;9.68;6.80;;;;;;;21.40;68.66;102525.28;5284218;28;20078;-68
2022/07/09 10:48:07;;;;;;;6.97;6.18;;;;;;;21.50;67.87;102519.34;5282719;28;20056;-69
2022/07/09 10:50:44;;;;;;;7.03;6.32;;;;;;;21.60;68.04;102519.06;5283857;28;20361;-69
2022/07/09 10:53:17;;;;;;;6.32;5.47;;;;;;;21.79;67.47;102516.00;5283572;28;20100;-69
2022/07/09 10:55:49;;;;;;;8.73;5.55;;;;;;;22.06;66.11;102509.28;5282972;28;20028;-69
2022/07/09 10:58:23;;;;;;;5.53;4.28;;;;;;;22.15;64.49;102512.13;5283029;28;20048;-68
2022/07/09 11:01:00;;;;;;;7.57;4.68;;;;;;;22.31;63.64;102520.97;5283699;28;20472;-68
2022/07/09 11:03:32;;;;;;;5.25;4.20;;;;;;;22.18;62.42;102517.09;5282807;28;20060;-68
2022/07/09 11:06:04;;;;;;;7.10;3.50;;;;;;;22.29;62.10;102514.81;5282925;28;20043;-68
2022/07/09 11:08:35;;;;;;;5.95;4.68;;;;;;;22.31;61.90;102521.81;5283007;28;20064;-69
2022/07/09 11:11:07;;;;;;;7.35;3.70;;;;;;;22.26;62.75;102521.13;5283096;28;20063;-68
2022/07/09 11:13:38;;;;;;;5.28;3.97;;;;;;;22.31;63.16;102516.16;5281580;28;20037;-68
2022/07/09 11:16:09;;;;;;;3.42;3.13;;;;;;;22.14;62.58;102516.13;5282244;28;20051;-67
2022/07/09 11:18:41;;;;;;;5.72;3.53;;;;;;;22.22;62.63;102525.81;5281132;28;20048;-65
2022/07/09 11:21:12;;;;;;;3.45;2.45;;;;;;;22.18;61.77;102517.09;5282511;28;20103;-64
2022/07/09 11:23:49;;;;;;;5.85;3.03;;;;;;;22.15;62.27;102526.25;5281331;28;20490;-65
2022/07/09 11:26:20;;;;;;;3.35;2.72;;;;;;;22.12;62.03;102524.91;5269896;28;20032;-65
2022/07/09 11:28:52;;;;;;;4.07;3.15;;;;;;;22.03;62.26;102521.22;5280293;28;20039;-65
2022/07/09 11:31:24;;;;;;;6.82;3.15;;;;;;;22.25;61.69;102527.97;5281194;28;20104;-65
2022/07/09 11:34:11;;;;;;;6.43;2.60;;;;;;;22.33;61.47;102525.16;5282760;28;20115;-67
2022/07/09 11:36:48;;;;;;;4.93;2.20;;;;;;;22.10;60.89;102532.03;5282798;28;20029;-66
2022/07/09 11:39:29;;;;;;;16.90;15.20;;;;;;;22.14;60.29;102533.06;5262336;28;20028;-66
2022/07/09 11:42:01;;;;;;;4.05;3.65;;;;;;;22.04;60.10;102527.72;5275398;28;20376;-67
2022/07/09 11:44:33;;;;;;;5.78;3.67;;;;;;;22.23;59.44;102525.47;5281181;28;20034;-67
2022/07/09 11:47:15;;;;;;;1.88;1.67;;;;;;;22.19;60.32;102518.81;5281277;28;20031;-67
2022/07/09 11:49:48;;;;;;;2.38;1.80;;;;;;;22.58;60.09;102519.88;5282848;28;20024;-66
2022/07/09 11:52:19;;;;;;;3.00;2.63;;;;;;;22.50;57.60;102526.34;5280617;28;20035;-66
2022/07/09 11:54:57;;;;;;;1.83;1.60;;;;;;;22.38;58.01;102514.84;5282377;28;20480;-67
2022/07/09 11:57:31;;;;;;;3.17;1.80;;;;;;;22.36;58.46;102518.81;5282362;28;20052;-66
2022/07/09 12:00:21;;;;;;;4.65;1.65;;;;;;;22.36;57.88;102523.66;5282247;28;20031;-68
2022/07/09 12:02:53;;;;;;;3.00;1.60;;;;;;;22.47;57.54;102524.16;5279552;28;20034;-68
2022/07/09 12:05:27;;;;;;;4.20;1.80;;;;;;;22.51;58.04;102514.69;5280443;28;20052;-67
2022/07/09 12:08:01;;;;;;;31.92;27.95;;;;;;;22.54;57.22;102521.69;5281470;28;20094;-68
2022/07/09 12:10:35;;;;;;;3.38;2.03;;;;;;;22.44;56.13;102520.00;5278075;28;20480;-67
2022/07/09 12:13:09;;;;;;;3.42;1.60;;;;;;;22.45;55.95;102516.03;5280546;28;20025;-67
2022/07/09 12:15:40;;;;;;;4.22;2.17;;;;;;;22.52;56.25;102510.72;5278914;28;20025;-67
2022/07/09 12:18:11;;;;;;;2.95;1.50;;;;;;;22.58;55.47;102514.22;5281658;28;20051;-68
2022/07/09 12:20:43;;;;;;;2.35;1.60;;;;;;;22.48;55.36;102521.00;5280761;28;20029;-70
2022/07/09 12:23:14;;;;;;;4.43;1.52;;;;;;;22.55;55.07;102518.53;5281098;28;20048;-67
2022/07/09 12:25:45;;;;;;;4.45;1.40;;;;;;;22.67;54.22;102520.69;5281223;28;20483;-65
2022/07/09 12:28:17;;;;;;;1.73;1.30;;;;;;;22.83;53.70;102523.88;5280461;28;20028;-67
2022/07/09 12:30:49;;;;;;;2.83;1.30;;;;;;;22.86;53.72;102528.84;5280381;28;20423;-68
2022/07/09 12:33:20;;;;;;;3.65;1.30;;;;;;;22.70;53.21;102527.66;5279719;28;20070;-68
2022/07/09 12:35:52;;;;;;;2.63;1.40;;;;;;;22.97;53.37;102529.38;5280789;28;20025;-67
2022/07/09 12:38:23;;;;;;;4.85;1.30;;;;;;;22.66;53.08;102510.56;5281023;28;20036;-68
2022/07/09 12:40:54;;;;;;;2.40;1.02;;;;;;;22.73;52.86;102508.06;5280766;28;20037;-68
2022/07/09 12:43:26;;;;;;;4.70;1.40;;;;;;;23.03;52.40;102521.53;5282697;28;20017;-67
2022/07/09 12:45:58;;;;;;;3.50;1.40;;;;;;;22.89;51.90;102528.19;5284632;28;20047;-67
2022/07/09 12:48:29;;;;;;;3.83;1.13;;;;;;;23.06;51.26;102518.03;5284314;28;20051;-67
2022/07/09 12:51:01;;;;;;;4.07;1.60;;;;;;;22.96;50.84;102514.38;5285525;28;20060;-69
2022/07/09 12:53:32;;;;;;;2.97;1.40;;;;;;;23.12;51.11;102522.38;5284299;28;20017;-67
2022/07/09 12:56:03;;;;;;;2.38;1.30;;;;;;;23.18;50.37;102512.53;5284023;28;20013;-67
2022/07/09 12:58:35;;;;;;;1.58;1.33;;;;;;;23.18;49.68;102519.00;5284139;28;20056;-67
2022/07/09 13:01:06;;;;;;;1.13;1.00;;;;;;;23.50;49.96;102516.78;5283962;28;20110;-67
2022/07/09 13:03:37;;;;;;;2.15;1.25;;;;;;;23.39;49.46;102516.31;5284287;28;20392;-67
2022/07/09 13:06:30;;;;;;;4.20;1.30;;;;;;;23.36;49.60;102519.81;5284338;28;20496;-68
2022/07/09 13:09:10;;;;;;;0.95;0.93;;;;;;;23.42;48.55;102526.97;5284770;28;20040;-68
2022/07/09 13:11:41;;;;;;;1.17;0.90;;;;;;;23.33;48.39;102528.97;5285947;28;20027;-68
2022/07/09 13:14:13;;;;;;;3.17;1.02;;;;;;;23.33;47.68;102528.97;5286221;28;20024;-71
2022/07/09 13:16:44;;;;;;;2.72;1.15;;;;;;;23.15;48.02;102521.69;5284396;28;20016;-66
2022/07/09 13:19:15;;;;;;;1.95;1.42;;;;;;;23.55;47.24;102518.59;5284952;28;20033;-67
2022/07/09 13:21:47;;;;;;;2.35;1.10;;;;;;;23.08;46.51;102529.84;5284998;28;20111;-67
2022/07/09 13:24:18;;;;;;;1.27;1.00;;;;;;;23.22;45.48;102519.19;5284740;28;20074;-69
2022/07/09 13:26:49;;;;;;;7.60;6.82;;;;;;;23.47;45.78;102528.78;5285274;28;20426;-67
2022/07/09 13:29:21;;;;;;;1.85;1.73;;;;;;;23.64;45.85;102519.38;5279299;28;20085;-65
2022/07/09 13:31:52;;;;;;;5.88;1.15;;;;;;;23.29;46.30;102522.34;5275366;28;20020;-69
2022/07/09 13:34:23;;;;;;;2.75;1.20;;;;;;;23.08;46.31;102521.38;5280662;28;20028;-68
2022/07/09 13:36:54;;;;;;;2.38;1.17;;;;;;;23.12;46.90;102522.38;5280819;28;20077;-68
2022/07/09 13:39:26;;;;;;;3.83;1.20;;;;;;;23.16;45.74;102529.00;5283368;28;20044;-68
2022/07/09 13:41:57;;;;;;;6.97;5.55;;;;;;;23.35;45.32;102532.31;5283396;28;20436;-67
2022/07/09 13:44:28;;;;;;;6.80;2.20;;;;;;;23.30;46.23;102523.16;5284023;28;20074;-67
2022/07/09 13:47:00;;;;;;;3.47;1.80;;;;;;;23.26;47.30;102525.00;5284681;28;20036;-67
2022/07/09 13:49:31;;;;;;;2.15;1.20;;;;;;;22.86;47.87;102540.16;5283694;28;20028;-68
2022/07/09 13:52:03;;;;;;;3.00;1.27;;;;;;;22.76;47.20;102530.00;5289496;28;20016;-67
2022/07/09 13:54:34;;;;;;;2.97;1.50;;;;;;;22.96;47.64;102531.34;5304483;28;20023;-67
2022/07/09 13:57:06;;;;;;;3.03;1.20;;;;;;;23.15;46.66;102527.34;5289618;28;20037;-68
2022/07/09 13:59:37;;;;;;;4.35;1.80;;;;;;;23.21;45.12;102526.00;5283423;28;20068;-68
2022/07/09 14:02:08;;;;;;;2.15;1.23;;;;;;;23.32;45.21;102513.16;5283638;28;20119;-67
2022/07/09 14:04:39;;;;;;;2.58;1.20;;;;;;;23.38;45.15;102517.47;5283013;28;20028;-67
2022/07/09 14:07:11;;;;;;;4.63;1.48;;;;;;;23.29;45.30;102516.69;5283980;28;20040;-67
2022/07/09 14:09:43;;;;;;;4.78;1.25;;;;;;;23.23;45.82;102526.50;5284178;28;20099;-67
2022/07/09 14:12:14;;;;;;;16.30;14.70;;;;;;;23.61;44.33;102529.41;5283461;28;20036;-68
2022/07/09 14:14:45;;;;;;;3.17;1.70;;;;;;;23.27;43.75;102519.00;5283006;28;20025;-67
2022/07/09 14:17:17;;;;;;;3.58;2.17;;;;;;;23.51;44.01;102520.44;5283839;28;20032;-67
2022/07/09 14:19:48;;;;;;;2.40;1.73;;;;;;;23.85;43.05;102511.84;5283055;28;20582;-67
2022/07/09 14:22:19;;;;;;;4.95;3.47;;;;;;;23.64;43.55;102510.91;5283402;28;20024;-67
2022/07/09 14:24:51;;;;;;;8.68;6.65;;;;;;;23.62;44.36;102522.56;5283199;28;20041;-67
2022/07/09 14:27:22;;;;;;;4.55;2.03;;;;;;;23.24;44.53;102519.69;5282607;28;20021;-67
2022/07/09 14:29:54;;;;;;;2.92;1.50;;;;;;;23.03;44.65;102519.53;5283531;28;20464;-68
2022/07/09 14:32:25;;;;;;;3.20;1.65;;;;;;;23.13;44.50;102518.38;5283248;28;20541;-67
2022/07/09 14:34:57;;;;;;;2.28;1.40;;;;;;;23.19;43.79;102517.03;5283230;28;20031;-68
2022/07/09 14:37:29;;;;;;;4.20;1.63;;;;;;;23.45;43.99;102511.31;5283375;28;20150;-68
2022/07/09 14:40:01;;;;;;;1.65;1.10;;;;;;;23.54;43.31;102506.44;5282550;28;20028;-68
2022/07/09 14:42:32;;;;;;;3.42;1.25;;;;;;;23.59;42.74;102509.06;5283472;28;20563;-68
2022/07/09 14:45:04;;;;;;;2.17;1.77;;;;;;;23.73;42.87;102517.41;5283479;28;20418;-69
2022/07/09 14:47:38;;;;;;;3.15;2.05;;;;;;;23.64;43.43;102508.88;5282858;28;20121;-68
2022/07/09 14:50:09;;;;;;;2.90;1.73;;;;;;;23.71;43.04;102505.53;5282958;28;20372;-68
2022/07/09 14:52:44;;;;;;;4.53;1.92;;;;;;;24.02;42.57;102512.91;5283469;28;20027;-68
2022/07/09 14:55:16;;;;;;;3.92;2.47;;;;;;;23.79;41.98;102518.03;5282564;28;20384;-68
2022/07/09 14:57:47;;;;;;;8.00;2.47;;;;;;;23.91;41.67;102511.66;5283179;28;20126;-69
2022/07/09 15:00:19;;;;;;;3.17;2.05;;;;;;;23.94;41.95;102522.31;5283188;28;20065;-67
2022/07/09 15:02:50;;;;;;;2.97;1.63;;;;;;;24.00;40.99;102518.91;5282464;28;20025;-67
2022/07/09 15:05:23;;;;;;;2.55;1.50;;;;;;;23.97;41.60;102521.63;5282665;28;20031;-66
2022/07/09 15:07:55;;;;;;;4.68;3.85;;;;;;;23.77;41.40;102515.53;5282298;28;20032;-69
2022/07/09 15:10:26;;;;;;;4.30;2.20;;;;;;;23.78;41.54;102510.72;5283718;28;20022;-70
2022/07/09 15:12:57;;;;;;;5.10;2.35;;;;;;;23.85;41.72;102506.19;5283064;28;20024;-70
2022/07/09 15:15:28;;;;;;;2.70;1.55;;;;;;;23.81;42.29;102499.53;5282331;28;20107;-70
2022/07/09 15:18:01;;;;;;;2.58;1.42;;;;;;;23.87;41.49;102497.31;5281395;28;20029;-70
2022/07/09 15:20:32;;;;;;;2.72;1.63;;;;;;;24.02;41.27;102493.09;5281145;28;20433;-71
2022/07/09 15:23:04;;;;;;;22.52;19.65;;;;;;;24.19;41.01;102495.00;5282725;28;20107;-71
2022/07/09 15:25:35;;;;;;;3.05;2.28;;;;;;;24.04;41.55;102500.06;5283399;28;20032;-71
2022/07/09 15:28:06;;;;;;;39.53;35.90;;;;;;;24.04;41.83;102496.41;5278357;28;20028;-71
2022/07/09 15:30:38;;;;;;;10.70;9.60;;;;;;;24.12;41.80;102494.69;5282204;28;20017;-71
2022/07/09 15:33:11;;;;;;;3.38;1.35;;;;;;;23.82;42.28;102498.34;5282942;28;20064;-74
2022/07/09 15:35:43;;;;;;;3.42;1.48;;;;;;;23.88;42.72;102484.84;5282812;28;20012;-69
2022/07/09 15:38:14;;;;;;;2.95;1.60;;;;;;;24.15;42.78;102485.50;5281336;28;20031;-66
2022/07/09 15:40:45;;;;;;;2.95;1.50;;;;;;;23.73;42.78;102480.56;5282636;28;20028;-66
2022/07/09 15:43:16;;;;;;;6.20;2.17;;;;;;;23.86;43.05;102485.16;5281945;28;20020;-68
2022/07/09 15:45:49;;;;;;;2.85;1.98;;;;;;;23.91;43.04;102481.31;5283418;28;20056;-68
2022/07/09 15:48:22;;;;;;;5.80;2.33;;;;;;;23.81;43.23;102476.88;5282627;28;20419;-68
2022/07/09 15:50:56;;;;;;;2.92;1.85;;;;;;;24.10;43.50;102466.69;5281958;28;20023;-67
2022/07/09 15:53:27;;;;;;;3.97;2.17;;;;;;;24.09;43.40;102465.03;5280638;28;20024;-68
2022/07/09 15:55:58;;;;;;;3.83;1.75;;;;;;;24.30;43.67;102456.56;5282541;28;20025;-68
2022/07/09 15:58:30;;;;;;;3.33;1.35;;;;;;;24.12;43.20;102455.84;5282019;28;20123;-70
2022/07/09 16:01:02;;;;;;;4.18;1.63;;;;;;;24.20;44.00;102457.78;5281409;28;20020;-67
2022/07/09 16:03:33;;;;;;;3.30;1.85;;;;;;;24.20;44.37;102460.63;5281435;28;20034;-65
2022/07/09 16:06:06;;;;;;;12.98;11.40;;;;;;;24.00;44.59;102456.56;5279845;28;20452;-65
2022/07/09 16:08:37;;;;;;;5.47;2.42;;;;;;;24.12;44.80;102464.34;5282273;28;20036;-65
2022/07/09 16:13:59;;;;;;;5.82;2.15;;;;;;;24.01;45.81;102457.44;5261370;28;20041;-67
2022/07/09 16:16:31;;;;;;;5.18;2.03;;;;;;;23.96;46.48;102466.13;5279703;28;20020;-67
2022/07/09 16:19:02;;;;;;;5.40;2.63;;;;;;;23.65;47.58;102467.25;5280562;28;20486;-68
2022/07/09 16:21:34;;;;;;;3.17;1.98;;;;;;;23.55;47.56;102470.47;5286772;28;20024;-68
2022/07/09 16:24:07;;;;;;;4.15;2.15;;;;;;;23.77;47.89;102475.03;5286241;28;20017;-68
2022/07/09 16:26:38;;;;;;;4.93;1.90;;;;;;;23.44;49.68;102473.69;5285365;28;20324;-68
2022/07/09 16:29:10;;;;;;;3.50;1.92;;;;;;;23.44;49.68;102472.81;5286273;28;20029;-69
2022/07/09 16:31:41;;;;;;;5.68;2.40;;;;;;;23.08;50.14;102481.75;5286037;28;20053;-69
2022/07/09 16:34:12;;;;;;;4.00;1.90;;;;;;;23.19;50.36;102471.75;5286078;28;20024;-69
2022/07/09 16:36:43;;;;;;;7.53;2.25;;;;;;;22.67;51.32;102472.63;5285324;28;20134;-69
2022/07/09 16:39:15;;;;;;;6.43;2.00;;;;;;;22.78;51.26;102464.66;5285875;28;20349;-69
2022/07/09 16:41:46;;;;;;;6.60;4.95;;;;;;;22.87;51.01;102475.94;5285820;28;20112;-69
2022/07/09 16:44:18;;;;;;;6.97;1.83;;;;;;;22.56;50.61;102489.09;5286550;28;20021;-69
2022/07/09 16:46:49;;;;;;;5.10;2.13;;;;;;;22.42;50.98;102474.31;5284937;28;20025;-69
2022/07/09 16:49:20;;;;;;;3.30;1.98;;;;;;;22.38;50.81;102493.06;5286040;28;20032;-69
2022/07/09 16:51:52;;;;;;;6.00;1.80;;;;;;;22.31;50.57;102482.25;5286121;28;20028;-70
2022/07/09 16:54:23;;;;;;;7.30;2.67;;;;;;;22.50;50.09;102490.44;5284890;28;20067;-69
2022/07/09 16:56:54;;;;;;;5.50;2.20;;;;;;;22.33;49.81;102490.41;5285940;28;20045;-69
2022/07/09 16:59:25;;;;;;;5.97;2.65;;;;;;;22.21;49.80;102487.38;5286075;28;20033;-70
2022/07/09 17:01:57;;;;;;;6.45;3.70;;;;;;;22.03;49.60;102492.13;5284861;28;20444;-70
2022/07/09 17:04:28;;;;;;;7.75;4.88;;;;;;;21.94;49.69;102494.94;5283922;28;20490;-70
2022/07/09 17:06:59;;;;;;;6.70;2.72;;;;;;;22.07;49.61;102493.16;5283178;28;20021;-69
2022/07/09 17:09:31;;;;;;;3.95;1.80;;;;;;;21.87;49.92;102489.75;5284136;28;20472;-70
2022/07/09 17:12:02;;;;;;;8.32;2.30;;;;;;;21.93;49.64;102498.91;5284650;28;20480;-70
2022/07/09 17:14:34;;;;;;;5.30;2.03;;;;;;;21.86;50.40;102492.94;5284679;28;20506;-70
2022/07/09 17:17:05;;;;;;;5.47;1.92;;;;;;;22.02;50.08;102502.59;5285416;28;20467;-69
2022/07/09 17:19:36;;;;;;;8.07;1.60;;;;;;;22.12;50.41;102501.47;5285441;28;20025;-67
2022/07/09 17:22:07;;;;;;;3.10;1.60;;;;;;;22.02;49.87;102505.44;5284979;28;20096;-67
2022/07/09 17:24:39;;;;;;;5.00;2.42;;;;;;;22.17;49.84;102503.31;5285198;28;20033;-67
2022/07/09 17:27:10;;;;;;;6.28;1.80;;;;;;;22.23;49.29;102513.31;5284594;28;20024;-67
